createdAt,value
2023-04-01T00:01:47.481Z,99164.73
2023-04-01T00:04:16.902Z,99170.66
2023-04-01T00:06:46.367Z,99168.67
2023-04-01T00:09:16.159Z,99166.38
2023-04-01T00:11:46.573Z,99176.73
2023-04-01T00:14:16.182Z,99182.30
2023-04-01T00:16:45.612Z,99180.83
2023-04-01T00:19:16.599Z,99187.38
2023-04-01T00:21:46.337Z,99187.19
2023-04-01T00:24:15.612Z,99187.52
2023-04-01T00:26:45.666Z,99183.59
2023-04-01T00:29:14.952Z,99192.11
2023-04-01T00:31:44.472Z,99191.61
2023-04-01T00:34:14.529Z,99191.28
2023-04-01T00:36:43.812Z,99197.85
2023-04-01T00:39:13.173Z,99198.50
2023-04-01T00:41:42.934Z,99194.21
2023-04-01T00:44:23.920Z,99199.98
2023-04-01T00:46:56.545Z,99204.08
2023-04-01T00:49:26.097Z,99198.63
2023-04-01T00:51:57.713Z,99202.41
2023-04-01T00:54:28.040Z,99208.98
2023-04-01T00:57:00.752Z,99205.68
2023-04-01T00:59:35.919Z,99218.17
2023-04-01T01:02:07.465Z,99218.30
2023-04-01T01:04:38.655Z,99215.16
2023-04-01T01:07:28.159Z,99220.09
2023-04-01T01:10:15.492Z,99223.36
2023-04-01T01:12:57.279Z,99222.20
2023-04-01T01:15:38.800Z,99229.08
2023-04-01T01:18:23.521Z,99227.61
2023-04-01T01:21:15.878Z,99231.06
2023-04-01T01:23:51.149Z,99229.59
2023-04-01T01:26:25.359Z,99238.94
2023-04-01T01:29:03.655Z,99231.55
2023-04-01T01:31:47.862Z,99231.55
2023-04-01T01:34:26.559Z,99222.20
2023-04-01T01:37:01.939Z,99234.81
2023-04-01T01:39:33.371Z,99228.25
2023-04-01T01:42:08.282Z,99234.80
2023-04-01T01:44:38.388Z,99234.33
2023-04-01T01:47:08.178Z,99242.04
2023-04-01T01:49:39.471Z,99241.69
2023-04-01T01:52:08.782Z,99244.98
2023-04-01T01:54:38.020Z,99248.25
2023-04-01T01:57:09.492Z,99247.61
2023-04-01T01:59:41.229Z,99247.25
2023-04-01T02:02:12.514Z,99248.24
2023-04-01T02:04:44.024Z,99253.97
2023-04-01T02:07:19.650Z,99252.18
2023-04-01T02:09:49.850Z,99257.43
2023-04-01T02:12:20.717Z,99257.75
2023-04-01T02:15:02.283Z,99259.38
2023-04-01T02:17:32.693Z,99261.02
2023-04-01T02:20:05.446Z,99265.78
2023-04-01T02:22:37.407Z,99267.89
2023-04-01T02:25:09.527Z,99267.88
2023-04-01T02:27:39.828Z,99263.31
2023-04-01T02:30:10.793Z,99268.20
2023-04-01T02:32:40.922Z,99263.94
2023-04-01T02:35:12.915Z,99269.34
2023-04-01T02:37:43.451Z,99270.81
2023-04-01T02:40:16.864Z,99280.00
2023-04-01T02:42:46.966Z,99280.00
2023-04-01T02:45:16.795Z,99281.62
2023-04-01T02:47:46.210Z,99281.62
2023-04-01T02:50:15.567Z,99280.00
2023-04-01T02:52:44.928Z,99292.44
2023-04-01T02:55:14.967Z,99292.59
2023-04-01T02:57:44.628Z,99294.27
2023-04-01T03:00:15.514Z,99296.20
2023-04-01T03:02:45.417Z,99290.13
2023-04-01T03:05:14.728Z,99297.84
2023-04-01T03:07:44.786Z,99306.23
2023-04-01T03:10:14.395Z,99309.00
2023-04-01T03:12:43.814Z,99316.21
2023-04-01T03:15:15.729Z,99315.72
2023-04-01T03:17:45.461Z,99312.73
2023-04-01T03:20:16.094Z,99316.20
2023-04-01T03:22:47.076Z,99326.02
2023-04-01T03:25:16.605Z,99326.48
2023-04-01T03:27:46.288Z,99326.47
2023-04-01T03:30:15.800Z,99333.72
2023-04-01T03:32:47.448Z,99342.54
2023-04-01T03:35:16.949Z,99330.73
2023-04-01T03:37:47.254Z,99342.84
2023-04-01T03:40:16.969Z,99342.52
2023-04-01T03:42:47.021Z,99339.42
2023-04-01T03:45:17.233Z,99346.13
2023-04-01T03:47:46.971Z,99349.91
2023-04-01T03:50:16.501Z,99354.00
2023-04-01T03:52:46.068Z,99355.31
2023-04-01T03:55:15.582Z,99357.58
2023-04-01T03:57:45.405Z,99356.95
2023-04-01T04:00:16.528Z,99360.05
2023-04-01T04:02:47.394Z,99360.88
2023-04-01T04:05:18.527Z,99367.44
2023-04-01T04:07:47.958Z,99363.83
2023-04-01T04:10:17.376Z,99380.88
2023-04-01T04:12:47.028Z,99374.68
2023-04-01T04:15:17.982Z,99369.44
2023-04-01T04:17:48.455Z,99374.70
2023-04-01T04:20:18.017Z,99385.52
2023-04-01T04:22:47.451Z,99387.82
2023-04-01T04:25:18.574Z,99392.44
2023-04-01T04:27:48.225Z,99393.27
2023-04-01T04:30:17.925Z,99398.01
2023-04-01T04:32:47.385Z,99398.69
2023-04-01T04:35:16.704Z,99395.43
2023-04-01T04:37:46.336Z,99400.53
2023-04-01T04:40:16.193Z,99399.69
2023-04-01T04:42:45.681Z,99417.07
2023-04-01T04:45:16.552Z,99415.96
2023-04-01T04:47:47.609Z,99416.45
2023-04-01T04:50:17.859Z,99427.48
2023-04-01T04:52:48.402Z,99426.02
2023-04-01T04:55:18.331Z,99435.53
2023-04-01T04:57:49.645Z,99439.03
2023-04-01T05:00:20.133Z,99447.41
2023-04-01T05:02:54.247Z,99454.03
2023-04-01T05:05:24.187Z,99455.52
2023-04-01T05:07:53.638Z,99457.99
2023-04-01T05:10:23.216Z,99464.08
2023-04-01T05:12:52.522Z,99465.91
2023-04-01T05:15:23.745Z,99472.33
2023-04-01T05:17:53.476Z,99474.11
2023-04-01T05:20:22.792Z,99475.58
2023-04-01T05:22:54.233Z,99482.78
2023-04-01T05:25:24.209Z,99486.23
2023-04-01T05:27:54.087Z,99481.34
2023-04-01T05:30:23.461Z,99486.92
2023-04-01T05:32:57.285Z,99493.79
2023-04-01T05:35:26.834Z,99501.03
2023-04-01T05:37:56.324Z,99499.99
2023-04-01T05:40:25.844Z,99501.66
2023-04-01T05:42:56.564Z,99502.34
2023-04-01T05:45:26.378Z,99511.17
2023-04-01T05:48:13.606Z,99514.33
2023-04-01T05:50:43.822Z,99520.42
2023-04-01T05:53:13.898Z,99528.45
2023-04-01T05:55:45.484Z,99527.63
2023-04-01T05:58:16.281Z,99534.88
2023-04-01T06:00:48.007Z,99548.33
2023-04-01T06:03:18.740Z,99542.13
2023-04-01T06:05:48.631Z,99546.06
2023-04-01T06:08:20.321Z,99554.59
2023-04-01T06:11:17.618Z,99556.21
2023-04-01T06:13:54.647Z,99569.72
2023-04-01T06:16:43.639Z,99571.03
2023-04-01T06:19:31.354Z,99573.33
2023-04-01T06:22:30.322Z,99577.92
2023-04-01T06:25:26.070Z,99577.59
2023-04-01T06:28:13.952Z,99591.11
2023-04-01T06:31:16.914Z,99590.73
2023-04-01T06:34:08.752Z,99596.66
2023-04-01T06:36:53.719Z,99599.59
2023-04-01T06:39:27.143Z,99600.92
2023-04-01T06:42:16.224Z,99609.56
2023-04-01T06:44:56.829Z,99613.20
2023-04-01T06:48:01.403Z,99615.67
2023-04-01T06:50:50.861Z,99618.93
2023-04-01T06:53:58.974Z,99630.27
2023-04-01T06:56:49.411Z,99634.05
2023-04-01T06:59:24.260Z,99635.05
2023-04-01T07:01:59.883Z,99642.17
2023-04-01T07:04:38.423Z,99650.20
2023-04-01T07:07:27.933Z,99652.70
2023-04-01T07:10:02.176Z,99653.53
2023-04-01T07:12:57.451Z,99658.02
2023-04-01T07:15:40.749Z,99654.73
2023-04-01T07:18:20.507Z,99663.48
2023-04-01T07:20:51.170Z,99660.02
2023-04-01T07:23:31.619Z,99666.76
2023-04-01T07:26:22.062Z,99672.61
2023-04-01T07:29:15.573Z,99671.31
2023-04-01T07:32:13.926Z,99679.17
2023-04-01T07:34:55.384Z,99684.30
2023-04-01T07:37:31.492Z,99686.59
2023-04-01T07:40:19.215Z,99689.63
2023-04-01T07:42:55.826Z,99690.59
2023-04-01T07:45:37.103Z,99699.28
2023-04-01T07:48:21.926Z,99702.17
2023-04-01T07:51:05.883Z,99711.02
2023-04-01T07:53:50.377Z,99706.62
2023-04-01T07:56:31.496Z,99709.55
2023-04-01T07:59:10.638Z,99713.52
2023-04-01T08:02:18.564Z,99717.28
2023-04-01T08:04:57.431Z,99725.75
2023-04-01T08:07:45.650Z,99733.84
2023-04-01T08:10:36.245Z,99730.53
2023-04-01T08:13:39.807Z,99742.51
2023-04-01T08:16:31.831Z,99745.14
2023-04-01T08:19:25.494Z,99755.20
2023-04-01T08:21:57.800Z,99754.87
2023-04-01T08:24:44.311Z,99760.83
2023-04-01T08:27:08.112Z,99763.78
2023-04-01T08:29:43.977Z,99763.84
2023-04-01T08:32:16.909Z,99761.52
2023-04-01T08:34:49.321Z,99777.52
2023-04-01T08:37:29.886Z,99780.77
2023-04-01T08:40:02.500Z,99781.20
2023-04-01T08:42:42.704Z,99785.91
2023-04-01T08:45:19.616Z,99788.38
2023-04-01T08:48:23.364Z,99792.00
2023-04-01T08:51:06.784Z,99794.63
2023-04-01T08:54:15.857Z,99797.03
2023-04-01T08:56:51.396Z,99794.78
2023-04-01T08:59:26.990Z,99804.56
2023-04-01T09:02:06.165Z,99808.41
2023-04-01T09:04:57.647Z,99807.42
2023-04-01T09:07:42.581Z,99811.22
2023-04-01T09:10:27.338Z,99812.97
2023-04-01T09:13:33.482Z,99820.88
2023-04-01T09:16:15.130Z,99821.93
2023-04-01T09:18:50.932Z,99834.06
2023-04-01T09:21:41.622Z,99828.35
2023-04-01T09:24:32.295Z,99829.59
2023-04-01T09:27:07.733Z,99834.33
2023-04-01T09:29:44.073Z,99838.98
2023-04-01T09:32:32.227Z,99834.78
2023-04-01T09:35:25.874Z,99839.13
2023-04-01T09:38:31.432Z,99842.14
2023-04-01T09:41:10.051Z,99852.85
2023-04-01T09:43:46.713Z,99852.81
2023-04-01T09:46:49.133Z,99855.18
2023-04-01T09:49:30.846Z,99855.38
2023-04-01T09:52:12.386Z,99859.56
2023-04-01T09:55:18.640Z,99859.41
2023-04-01T09:58:08.611Z,99864.82
2023-04-01T10:01:03.777Z,99864.25
2023-04-01T10:04:10.189Z,99867.84
2023-04-01T10:06:55.629Z,99870.69
2023-04-01T10:09:33.938Z,99873.38
2023-04-01T10:12:21.850Z,99882.05
2023-04-01T10:15:17.029Z,99877.45
2023-04-01T10:17:52.695Z,99878.52
2023-04-01T10:20:40.134Z,99881.52
2023-04-01T10:23:21.806Z,99876.86
2023-04-01T10:26:13.984Z,99887.64
2023-04-01T10:29:07.222Z,99888.55
2023-04-01T10:32:00.997Z,99884.81
2023-04-01T10:34:52.832Z,99889.89
2023-04-01T10:37:57.409Z,99895.08
2023-04-01T10:40:51.856Z,99900.22
2023-04-01T10:43:59.017Z,99900.20
2023-04-01T10:46:32.209Z,99902.30
2023-04-01T10:49:12.663Z,99902.33
2023-04-01T10:52:07.227Z,99907.50
2023-04-01T10:55:02.756Z,99911.23
2023-04-01T10:58:19.667Z,99905.02
2023-04-01T11:01:19.721Z,99908.61
2023-04-01T11:04:39.039Z,99907.56
2023-04-01T11:07:11.379Z,99913.47
2023-04-01T11:10:06.633Z,99919.19
2023-04-01T11:13:03.811Z,99922.89
2023-04-01T11:15:53.153Z,99920.83
2023-04-01T11:18:52.501Z,99925.61
2023-04-01T11:21:40.576Z,99930.06
2023-04-01T11:24:22.009Z,99935.41
2023-04-01T11:27:20.992Z,99933.94
2023-04-01T11:30:00.353Z,99942.59
2023-04-01T11:32:34.353Z,99950.03
2023-04-01T11:35:09.773Z,99948.56
2023-04-01T11:37:42.692Z,99956.13
2023-04-01T11:40:42.328Z,99955.31
2023-04-01T11:43:33.496Z,99960.77
2023-04-01T11:46:16.502Z,99961.72
2023-04-01T11:49:05.019Z,99966.65
2023-04-01T11:51:58.578Z,99968.89
2023-04-01T11:54:39.955Z,99967.55
2023-04-01T11:57:44.482Z,99978.06
2023-04-01T12:00:38.230Z,99985.08
2023-04-01T12:03:11.642Z,99980.62
2023-04-01T12:05:44.233Z,99990.98
2023-04-01T12:08:31.523Z,99990.91
2023-04-01T12:11:09.357Z,99995.10
2023-04-01T12:13:47.511Z,99994.92
2023-04-01T12:16:37.130Z,99998.87
2023-04-01T12:19:43.121Z,99996.28
2023-04-01T12:22:15.767Z,100002.31
2023-04-01T12:24:46.052Z,100010.20
2023-04-01T12:27:21.517Z,100013.23
2023-04-01T12:30:13.408Z,100013.86
2023-04-01T12:32:58.214Z,100014.70
2023-04-01T12:35:30.689Z,100016.92
2023-04-01T12:38:21.772Z,100018.64
2023-04-01T12:41:00.356Z,100025.06
2023-04-01T12:43:51.131Z,100025.17
2023-04-01T12:46:26.935Z,100026.34
2023-04-01T12:49:08.668Z,100025.98
2023-04-01T12:51:47.157Z,100029.70
2023-04-01T12:54:46.111Z,100034.84
2023-04-01T12:57:36.573Z,100040.48
2023-04-01T13:00:26.349Z,100043.51
2023-04-01T13:03:15.809Z,100050.05
2023-04-01T13:05:51.324Z,100045.84
2023-04-01T13:08:44.390Z,100051.98
2023-04-01T13:11:14.910Z,100047.75
2023-04-01T13:14:07.297Z,100054.43
2023-04-01T13:16:45.843Z,100059.12
2023-04-01T13:19:21.609Z,100064.05
2023-04-01T13:22:10.482Z,100068.08
2023-04-01T13:25:01.496Z,100069.28
2023-04-01T13:27:39.977Z,100074.89
2023-04-01T13:30:39.012Z,100082.45
2023-04-01T13:33:30.643Z,100080.30
2023-04-01T13:36:03.304Z,100077.66
2023-04-01T13:38:44.899Z,100087.48
2023-04-01T13:41:26.472Z,100085.29
2023-04-01T13:44:17.361Z,100085.11
2023-04-01T13:47:14.206Z,100091.94
2023-04-01T13:50:05.223Z,100093.27
2023-04-01T13:53:13.216Z,100097.80
2023-04-01T13:56:08.610Z,100098.52
2023-04-01T13:58:59.565Z,100103.56
2023-04-01T14:01:32.355Z,100105.24
2023-04-01T14:04:22.905Z,100107.69
2023-04-01T14:07:12.005Z,100110.70
2023-04-01T14:10:03.879Z,100110.72
2023-04-01T14:12:36.435Z,100120.27
2023-04-01T14:15:24.026Z,100128.09
2023-04-01T14:18:12.251Z,100124.69
2023-04-01T14:21:19.815Z,100124.39
2023-04-01T14:24:18.444Z,100131.09
2023-04-01T14:27:20.562Z,100130.94
2023-04-01T14:30:14.318Z,100142.41
2023-04-01T14:32:49.954Z,100144.28
2023-04-01T14:35:34.322Z,100148.42
2023-04-01T14:38:18.776Z,100147.81
2023-04-01T14:41:18.118Z,100148.61
2023-04-01T14:44:08.598Z,100152.74
2023-04-01T14:46:52.327Z,100159.03
2023-04-01T14:49:27.756Z,100156.81
2023-04-01T14:51:57.291Z,100158.46
2023-04-01T14:54:38.773Z,100161.64
2023-04-01T14:57:13.774Z,100168.82
2023-04-01T14:59:52.054Z,100170.47
2023-04-01T15:02:42.689Z,100177.00
2023-04-01T15:05:36.608Z,100175.39
2023-04-01T15:08:12.304Z,100179.81
2023-04-01T15:10:47.811Z,100183.98
2023-04-01T15:13:32.210Z,100190.05
2023-04-01T15:16:07.553Z,100190.62
2023-04-01T15:18:59.917Z,100196.38
2023-04-01T15:21:35.278Z,100196.98
2023-04-01T15:24:25.872Z,100201.55
2023-04-01T15:27:11.243Z,100205.97
2023-04-01T15:30:06.993Z,100214.38
2023-04-01T15:32:56.432Z,100214.52
2023-04-01T15:35:35.147Z,100217.14
2023-04-01T15:38:29.206Z,100222.55
2023-04-01T15:41:18.431Z,100221.09
2023-04-01T15:43:55.497Z,100227.94
2023-04-01T15:46:40.233Z,100235.69
2023-04-01T15:49:27.604Z,100233.95
2023-04-01T15:52:17.876Z,100240.47
2023-04-01T15:55:02.556Z,100241.14
2023-04-01T15:58:06.987Z,100242.41
2023-04-01T16:01:08.262Z,100249.59
2023-04-01T16:03:40.949Z,100251.38
2023-04-01T16:06:25.763Z,100257.42
2023-04-01T16:09:04.481Z,100263.63
2023-04-01T16:11:56.902Z,100262.58
2023-04-01T16:14:53.427Z,100262.38
2023-04-01T16:17:46.000Z,100267.09
2023-04-01T16:20:18.390Z,100271.39
2023-04-01T16:23:02.942Z,100276.14
2023-04-01T16:25:36.282Z,100285.30
2023-04-01T16:28:25.708Z,100287.70
2023-04-01T16:31:14.777Z,100287.09
2023-04-01T16:33:47.273Z,100287.80
2023-04-01T16:36:24.908Z,100292.41
2023-04-01T16:39:18.208Z,100297.05
2023-04-01T16:42:20.667Z,100301.70
2023-04-01T16:44:59.423Z,100308.55
2023-04-01T16:47:43.489Z,100312.20
2023-04-01T16:50:26.230Z,100316.42
2023-04-01T16:53:11.555Z,100319.47
2023-04-01T16:55:53.873Z,100332.17
2023-04-01T16:58:29.560Z,100334.09
2023-04-01T17:01:07.959Z,100339.02
2023-04-01T17:03:40.706Z,100344.75
2023-04-01T17:06:16.261Z,100352.30
2023-04-01T17:08:57.567Z,100356.03
2023-04-01T17:11:30.044Z,100357.34
2023-04-01T17:14:05.348Z,100369.78
2023-04-01T17:16:50.003Z,100372.20
2023-04-01T17:19:33.744Z,100375.64
2023-04-01T17:22:21.502Z,100382.72
2023-04-01T17:24:57.091Z,100390.33
2023-04-01T17:27:46.241Z,100400.50
2023-04-01T17:30:43.034Z,100405.25
2023-04-01T17:33:31.281Z,100408.99
2023-04-01T17:36:03.755Z,100412.48
2023-04-01T17:38:54.083Z,100422.80
2023-04-01T17:41:47.685Z,100425.08
2023-04-01T17:44:51.561Z,100429.49
2023-04-01T17:47:32.850Z,100436.66
2023-04-01T17:50:21.651Z,100442.89
2023-04-01T17:53:06.043Z,100444.81
2023-04-01T17:56:11.255Z,100460.23
2023-04-01T17:58:49.000Z,100464.17
2023-04-01T18:01:30.778Z,100469.89
2023-04-01T18:04:18.300Z,100470.50
2023-04-01T18:07:07.094Z,100474.56
2023-04-01T18:09:45.801Z,100483.29
2023-04-01T18:12:38.634Z,100490.95
2023-04-01T18:15:20.055Z,100496.68
2023-04-01T18:17:58.396Z,100512.57
2023-04-01T18:20:58.357Z,100509.23
2023-04-01T18:23:38.449Z,100517.23
2023-04-01T18:26:11.702Z,100520.62
2023-04-01T18:28:43.641Z,100531.94
2023-04-01T18:31:40.729Z,100541.27
2023-04-01T18:34:29.719Z,100547.49
2023-04-01T18:37:05.467Z,100552.19
2023-04-01T18:39:46.438Z,100554.69
2023-04-01T18:42:46.350Z,100570.45
2023-04-01T18:45:29.487Z,100571.76
2023-04-01T18:48:37.242Z,100572.98
2023-04-01T18:51:12.591Z,100582.42
2023-04-01T18:53:44.675Z,100592.20
2023-04-01T18:56:26.505Z,100595.80
2023-04-01T18:59:01.702Z,100605.83
2023-04-01T19:01:39.905Z,100611.67
2023-04-01T19:04:30.655Z,100617.77
2023-04-01T19:07:06.316Z,100630.17
2023-04-01T19:09:50.264Z,100633.14
2023-04-01T19:12:25.800Z,100637.20
2023-04-01T19:15:17.892Z,100646.64
2023-04-01T19:17:55.722Z,100650.59
2023-04-01T19:20:46.634Z,100657.73
2023-04-01T19:23:41.872Z,100662.52
2023-04-01T19:26:26.374Z,100667.28
2023-04-01T19:29:16.618Z,100671.14
2023-04-01T19:32:18.227Z,100678.29
2023-04-01T19:34:53.422Z,100688.19
2023-04-01T19:37:25.995Z,100687.09
2023-04-01T19:39:56.163Z,100695.34
2023-04-01T19:42:42.454Z,100701.31
2023-04-01T19:45:47.388Z,100705.34
2023-04-01T19:48:36.662Z,100705.70
2023-04-01T19:51:21.347Z,100715.51
2023-04-01T19:54:06.000Z,100718.37
2023-04-01T19:56:53.572Z,100725.05
2023-04-01T19:59:38.645Z,100729.11
2023-04-01T20:02:16.905Z,100735.78
2023-04-01T20:04:52.390Z,100744.24
2023-04-01T20:07:30.746Z,100743.52
2023-04-01T20:10:18.191Z,100751.63
2023-04-01T20:12:50.660Z,100754.59
2023-04-01T20:15:35.307Z,100765.20
2023-04-01T20:18:09.622Z,100772.95
2023-04-01T20:20:39.996Z,100779.17
2023-04-01T20:23:33.430Z,100778.20
2023-04-01T20:26:11.805Z,100781.44
2023-04-01T20:28:50.140Z,100785.96
2023-04-01T20:31:31.821Z,100800.27
2023-04-01T20:34:07.357Z,100803.83
2023-04-01T20:36:40.190Z,100801.58
2023-04-01T20:39:35.540Z,100807.76
2023-04-01T20:42:08.136Z,100815.28
2023-04-01T20:44:43.784Z,100823.15
2023-04-01T20:47:25.389Z,100834.22
2023-04-01T20:50:11.226Z,100842.59
2023-04-01T20:52:47.283Z,100836.48
2023-04-01T20:55:44.418Z,100842.55
2023-04-01T20:58:49.928Z,100856.73
2023-04-01T21:01:37.506Z,100863.41
2023-04-01T21:04:29.717Z,100865.19
2023-04-01T21:07:05.973Z,100869.11
2023-04-01T21:09:53.370Z,100876.47
2023-04-01T21:12:36.539Z,100876.23
2023-04-01T21:15:24.652Z,100879.66
2023-04-01T21:18:06.726Z,100896.36
2023-04-01T21:20:43.883Z,100899.89
2023-04-01T21:23:41.585Z,100911.58
2023-04-01T21:26:43.708Z,100909.28
2023-04-01T21:29:21.774Z,100920.45
2023-04-01T21:32:20.742Z,100927.51
2023-04-01T21:35:12.108Z,100934.52
2023-04-01T21:38:02.808Z,100933.55
2023-04-01T21:40:41.346Z,100947.72
2023-04-01T21:43:13.798Z,100945.88
2023-04-01T21:46:18.824Z,100952.44
2023-04-01T21:49:08.065Z,100959.20
2023-04-01T21:52:07.740Z,100961.66
2023-04-01T21:54:46.104Z,100970.69
2023-04-01T21:57:30.607Z,100975.41
2023-04-01T22:00:21.503Z,100980.61
2023-04-01T22:03:26.002Z,100981.03
2023-04-01T22:05:50.793Z,100994.24
2023-04-01T22:08:34.857Z,100995.69
2023-04-01T22:11:10.702Z,101003.83
2023-04-01T22:13:44.232Z,101005.14
2023-04-01T22:16:23.161Z,101004.86
2023-04-01T22:19:14.262Z,101017.64
2023-04-01T22:21:57.758Z,101021.53
2023-04-01T22:24:48.156Z,101022.94
2023-04-01T22:27:21.208Z,101034.55
2023-04-01T22:30:13.595Z,101035.91
2023-04-01T22:32:49.565Z,101042.56
2023-04-01T22:35:40.088Z,101050.06
2023-04-01T22:38:18.790Z,101052.19
2023-04-01T22:41:07.753Z,101060.55
2023-04-01T22:43:44.438Z,101060.50
2023-04-01T22:46:17.193Z,101065.84
2023-04-01T22:48:50.360Z,101071.73
2023-04-01T22:51:56.606Z,101081.27
2023-04-01T22:54:34.234Z,101081.86
2023-04-01T22:57:12.593Z,101087.36
2023-04-01T23:00:00.513Z,101084.84
2023-04-01T23:02:39.223Z,101094.92
2023-04-01T23:05:14.958Z,101107.29
2023-04-01T23:08:01.409Z,101109.06
2023-04-01T23:10:41.713Z,101112.69
2023-04-01T23:13:20.665Z,101120.19
2023-04-01T23:15:50.722Z,101122.90
2023-04-01T23:18:25.677Z,101122.64
2023-04-01T23:20:58.467Z,101130.48
2023-04-01T23:24:03.031Z,101136.09
2023-04-01T23:26:38.192Z,101144.49
2023-04-01T23:29:10.650Z,101142.66
2023-04-01T23:31:45.099Z,101149.85
2023-04-01T23:34:17.708Z,101151.81
2023-04-01T23:36:48.030Z,101156.13
2023-04-01T23:39:28.905Z,101159.77
2023-04-01T23:42:04.374Z,101167.16
2023-04-01T23:44:34.760Z,101164.34
2023-04-01T23:47:05.021Z,101172.75
2023-04-01T23:49:40.006Z,101172.39
2023-04-01T23:52:15.830Z,101174.81
2023-04-01T23:54:48.401Z,101182.09
2023-04-01T23:57:21.532Z,101186.97
